sensor_id;sensor_type;location;lat;lon;timestamp;P1;durP1;ratioP1;P2;durP2;ratioP2
8066;SDS011;4076;48.076;9.118;2024-02-23T00:01:43;0.70;;;0.60;;
8066;SDS011;4076;48.076;9.118;2024-02-23T00:04:09;0.80;;;0.80;;
8066;SDS011;4076;48.076;9.118;2024-02-23T00:06:35;1.47;;;0.80;;
8066;SDS011;4076;48.076;9.118;2024-02-23T00:09:00;0.70;;;0.70;;
8066;SDS011;4076;48.076;9.118;2024-02-23T00:11:26;2.30;;;0.90;;
8066;SDS011;4076;48.076;9.118;2024-02-23T00:13:53;0.83;;;0.83;;
8066;SDS011;4076;48.076;9.118;2024-02-23T00:16:19;0.80;;;0.77;;
8066;SDS011;4076;48.076;9.118;2024-02-23T00:18:44;0.83;;;0.80;;
8066;SDS011;4076;48.076;9.118;2024-02-23T00:21:10;0.70;;;0.60;;
8066;SDS011;4076;48.076;9.118;2024-02-23T00:23:35;2.27;;;0.73;;
8066;SDS011;4076;48.076;9.118;2024-02-23T00:26:01;0.70;;;0.60;;
8066;SDS011;4076;48.076;9.118;2024-02-23T00:28:27;0.70;;;0.70;;
8066;SDS011;4076;48.076;9.118;2024-02-23T00:30:52;1.20;;;0.80;;
8066;SDS011;4076;48.076;9.118;2024-02-23T00:33:18;1.40;;;1.30;;
8066;SDS011;4076;48.076;9.118;2024-02-23T00:35:43;0.70;;;0.70;;
8066;SDS011;4076;48.076;9.118;2024-02-23T00:38:09;0.70;;;0.70;;
8066;SDS011;4076;48.076;9.118;2024-02-23T00:40:34;0.80;;;0.70;;
8066;SDS011;4076;48.076;9.118;2024-02-23T00:43:00;0.70;;;0.60;;
8066;SDS011;4076;48.076;9.118;2024-02-23T00:45:26;1.03;;;0.93;;
8066;SDS011;4076;48.076;9.118;2024-02-23T00:47:51;0.70;;;0.70;;
8066;SDS011;4076;48.076;9.118;2024-02-23T00:50:17;0.70;;;0.60;;
8066;SDS011;4076;48.076;9.118;2024-02-23T00:52:42;0.70;;;0.70;;
8066;SDS011;4076;48.076;9.118;2024-02-23T00:55:08;1.07;;;0.70;;
8066;SDS011;4076;48.076;9.118;2024-02-23T00:57:34;0.60;;;0.60;;
8066;SDS011;4076;48.076;9.118;2024-02-23T01:00:00;0.63;;;0.57;;
8066;SDS011;4076;48.076;9.118;2024-02-23T01:02:28;0.97;;;0.50;;
8066;SDS011;4076;48.076;9.118;2024-02-23T01:04:54;0.70;;;0.70;;
8066;SDS011;4076;48.076;9.118;2024-02-23T01:07:21;1.43;;;0.50;;
8066;SDS011;4076;48.076;9.118;2024-02-23T01:09:48;0.70;;;0.60;;
8066;SDS011;4076;48.076;9.118;2024-02-23T01:12:13;0.60;;;0.60;;
8066;SDS011;4076;48.076;9.118;2024-02-23T01:14:39;1.13;;;0.70;;
8066;SDS011;4076;48.076;9.118;2024-02-23T01:17:04;0.60;;;0.60;;
8066;SDS011;4076;48.076;9.118;2024-02-23T01:19:30;3.53;;;0.60;;
8066;SDS011;4076;48.076;9.118;2024-02-23T01:21:55;0.60;;;0.50;;
8066;SDS011;4076;48.076;9.118;2024-02-23T01:24:25;0.60;;;0.60;;
8066;SDS011;4076;48.076;9.118;2024-02-23T01:26:52;0.63;;;0.63;;
8066;SDS011;4076;48.076;9.118;2024-02-23T01:29:19;0.70;;;0.60;;
8066;SDS011;4076;48.076;9.118;2024-02-23T01:31:45;0.70;;;0.60;;
8066;SDS011;4076;48.076;9.118;2024-02-23T01:34:10;0.60;;;0.50;;
8066;SDS011;4076;48.076;9.118;2024-02-23T01:36:36;0.70;;;0.60;;
8066;SDS011;4076;48.076;9.118;2024-02-23T01:39:02;0.60;;;0.50;;
8066;SDS011;4076;48.076;9.118;2024-02-23T01:41:28;0.60;;;0.60;;
8066;SDS011;4076;48.076;9.118;2024-02-23T01:43:54;0.80;;;0.60;;
8066;SDS011;4076;48.076;9.118;2024-02-23T01:46:19;0.60;;;0.50;;
8066;SDS011;4076;48.076;9.118;2024-02-23T01:48:45;0.60;;;0.50;;
8066;SDS011;4076;48.076;9.118;2024-02-23T01:51:11;0.70;;;0.70;;
8066;SDS011;4076;48.076;9.118;2024-02-23T01:53:37;0.60;;;0.57;;
8066;SDS011;4076;48.076;9.118;2024-02-23T01:56:03;2.20;;;0.70;;
8066;SDS011;4076;48.076;9.118;2024-02-23T01:58:30;1.63;;;0.60;;
8066;SDS011;4076;48.076;9.118;2024-02-23T02:00:57;0.60;;;0.50;;
8066;SDS011;4076;48.076;9.118;2024-02-23T02:03:23;0.60;;;0.60;;
8066;SDS011;4076;48.076;9.118;2024-02-23T02:05:48;0.70;;;0.60;;
8066;SDS011;4076;48.076;9.118;2024-02-23T02:08:15;0.93;;;0.60;;
8066;SDS011;4076;48.076;9.118;2024-02-23T02:10:41;0.70;;;0.67;;
8066;SDS011;4076;48.076;9.118;2024-02-23T02:13:08;0.60;;;0.60;;
8066;SDS011;4076;48.076;9.118;2024-02-23T02:15:33;1.13;;;1.03;;
8066;SDS011;4076;48.076;9.118;2024-02-23T02:17:59;0.67;;;0.60;;
8066;SDS011;4076;48.076;9.118;2024-02-23T02:20:25;0.60;;;0.50;;
8066;SDS011;4076;48.076;9.118;2024-02-23T02:22:52;0.60;;;0.60;;
8066;SDS011;4076;48.076;9.118;2024-02-23T02:25:18;0.60;;;0.60;;
8066;SDS011;4076;48.076;9.118;2024-02-23T02:27:43;0.60;;;0.60;;
8066;SDS011;4076;48.076;9.118;2024-02-23T02:30:10;0.60;;;0.60;;
8066;SDS011;4076;48.076;9.118;2024-02-23T02:32:37;0.80;;;0.60;;
8066;SDS011;4076;48.076;9.118;2024-02-23T02:35:03;0.80;;;0.70;;
8066;SDS011;4076;48.076;9.118;2024-02-23T02:37:29;1.63;;;0.70;;
8066;SDS011;4076;48.076;9.118;2024-02-23T02:39:54;1.07;;;0.70;;
8066;SDS011;4076;48.076;9.118;2024-02-23T02:42:20;0.70;;;0.60;;
8066;SDS011;4076;48.076;9.118;2024-02-23T02:44:45;1.00;;;0.77;;
8066;SDS011;4076;48.076;9.118;2024-02-23T02:47:11;1.00;;;0.90;;
8066;SDS011;4076;48.076;9.118;2024-02-23T02:49:36;0.70;;;0.70;;
8066;SDS011;4076;48.076;9.118;2024-02-23T02:52:04;0.70;;;0.63;;
8066;SDS011;4076;48.076;9.118;2024-02-23T02:54:29;0.80;;;0.70;;
8066;SDS011;4076;48.076;9.118;2024-02-23T02:56:55;0.80;;;0.80;;
8066;SDS011;4076;48.076;9.118;2024-02-23T02:59:21;1.10;;;0.70;;
8066;SDS011;4076;48.076;9.118;2024-02-23T03:01:48;0.87;;;0.63;;
8066;SDS011;4076;48.076;9.118;2024-02-23T03:04:13;0.80;;;0.80;;
8066;SDS011;4076;48.076;9.118;2024-02-23T03:06:39;0.70;;;0.70;;
8066;SDS011;4076;48.076;9.118;2024-02-23T03:09:05;0.70;;;0.70;;
8066;SDS011;4076;48.076;9.118;2024-02-23T03:11:32;0.70;;;0.70;;
8066;SDS011;4076;48.076;9.118;2024-02-23T03:13:57;1.00;;;0.90;;
8066;SDS011;4076;48.076;9.118;2024-02-23T03:16:23;0.80;;;0.70;;
8066;SDS011;4076;48.076;9.118;2024-02-23T03:18:50;0.80;;;0.77;;
8066;SDS011;4076;48.076;9.118;2024-02-23T03:21:16;0.80;;;0.80;;
8066;SDS011;4076;48.076;9.118;2024-02-23T03:23:42;0.80;;;0.80;;
8066;SDS011;4076;48.076;9.118;2024-02-23T03:26:08;0.70;;;0.70;;
8066;SDS011;4076;48.076;9.118;2024-02-23T03:28:33;0.90;;;0.70;;
8066;SDS011;4076;48.076;9.118;2024-02-23T03:31:02;0.80;;;0.70;;
8066;SDS011;4076;48.076;9.118;2024-02-23T03:33:27;1.53;;;0.73;;
8066;SDS011;4076;48.076;9.118;2024-02-23T03:35:53;1.00;;;0.80;;
8066;SDS011;4076;48.076;9.118;2024-02-23T03:38:20;0.70;;;0.70;;
8066;SDS011;4076;48.076;9.118;2024-02-23T03:40:45;0.80;;;0.80;;
8066;SDS011;4076;48.076;9.118;2024-02-23T03:43:11;2.27;;;2.07;;
8066;SDS011;4076;48.076;9.118;2024-02-23T03:45:36;0.80;;;0.80;;
8066;SDS011;4076;48.076;9.118;2024-02-23T03:48:03;0.90;;;0.80;;
8066;SDS011;4076;48.076;9.118;2024-02-23T03:50:29;0.73;;;0.70;;
8066;SDS011;4076;48.076;9.118;2024-02-23T03:52:55;0.80;;;0.77;;
8066;SDS011;4076;48.076;9.118;2024-02-23T03:55:21;2.50;;;1.80;;
8066;SDS011;4076;48.076;9.118;2024-02-23T03:57:47;0.70;;;0.70;;
8066;SDS011;4076;48.076;9.118;2024-02-23T04:00:12;0.70;;;0.70;;
8066;SDS011;4076;48.076;9.118;2024-02-23T04:02:39;0.83;;;0.63;;
8066;SDS011;4076;48.076;9.118;2024-02-23T04:05:05;0.70;;;0.60;;
8066;SDS011;4076;48.076;9.118;2024-02-23T04:07:31;0.70;;;0.60;;
8066;SDS011;4076;48.076;9.118;2024-02-23T04:09:56;1.73;;;0.70;;
8066;SDS011;4076;48.076;9.118;2024-02-23T04:12:22;0.80;;;0.80;;
8066;SDS011;4076;48.076;9.118;2024-02-23T04:14:47;0.80;;;0.70;;
8066;SDS011;4076;48.076;9.118;2024-02-23T04:17:13;0.77;;;0.77;;
8066;SDS011;4076;48.076;9.118;2024-02-23T04:19:40;1.03;;;0.80;;
8066;SDS011;4076;48.076;9.118;2024-02-23T04:22:06;1.10;;;0.83;;
8066;SDS011;4076;48.076;9.118;2024-02-23T04:24:35;0.80;;;0.70;;
8066;SDS011;4076;48.076;9.118;2024-02-23T04:27:03;0.80;;;0.77;;
8066;SDS011;4076;48.076;9.118;2024-02-23T04:29:29;0.80;;;0.70;;
8066;SDS011;4076;48.076;9.118;2024-02-23T04:31:55;0.70;;;0.70;;
8066;SDS011;4076;48.076;9.118;2024-02-23T04:34:20;0.70;;;0.60;;
8066;SDS011;4076;48.076;9.118;2024-02-23T04:36:46;0.60;;;0.60;;
8066;SDS011;4076;48.076;9.118;2024-02-23T04:39:11;2.40;;;0.80;;
8066;SDS011;4076;48.076;9.118;2024-02-23T04:41:37;0.93;;;0.83;;
8066;SDS011;4076;48.076;9.118;2024-02-23T04:44:03;0.63;;;0.60;;
8066;SDS011;4076;48.076;9.118;2024-02-23T04:46:28;0.70;;;0.60;;
8066;SDS011;4076;48.076;9.118;2024-02-23T04:48:55;1.30;;;0.87;;
8066;SDS011;4076;48.076;9.118;2024-02-23T04:51:21;0.80;;;0.80;;
8066;SDS011;4076;48.076;9.118;2024-02-23T04:53:48;1.00;;;0.77;;
8066;SDS011;4076;48.076;9.118;2024-02-23T04:56:14;0.70;;;0.70;;
8066;SDS011;4076;48.076;9.118;2024-02-23T04:58:40;1.63;;;1.53;;
8066;SDS011;4076;48.076;9.118;2024-02-23T05:01:07;0.70;;;0.70;;
8066;SDS011;4076;48.076;9.118;2024-02-23T05:03:33;1.10;;;0.87;;
8066;SDS011;4076;48.076;9.118;2024-02-23T05:05:59;1.10;;;0.80;;
8066;SDS011;4076;48.076;9.118;2024-02-23T05:08:24;0.80;;;0.80;;
8066;SDS011;4076;48.076;9.118;2024-02-23T05:10:52;0.80;;;0.80;;
8066;SDS011;4076;48.076;9.118;2024-02-23T05:13:17;0.80;;;0.70;;
8066;SDS011;4076;48.076;9.118;2024-02-23T05:15:43;0.80;;;0.70;;
8066;SDS011;4076;48.076;9.118;2024-02-23T05:18:09;0.70;;;0.70;;
8066;SDS011;4076;48.076;9.118;2024-02-23T05:20:34;1.47;;;0.80;;
8066;SDS011;4076;48.076;9.118;2024-02-23T05:23:00;1.00;;;0.80;;
8066;SDS011;4076;48.076;9.118;2024-02-23T05:25:25;0.70;;;0.70;;
8066;SDS011;4076;48.076;9.118;2024-02-23T05:27:51;0.67;;;0.63;;
8066;SDS011;4076;48.076;9.118;2024-02-23T05:30:17;0.70;;;0.70;;
8066;SDS011;4076;48.076;9.118;2024-02-23T05:32:43;0.97;;;0.90;;
8066;SDS011;4076;48.076;9.118;2024-02-23T05:35:08;1.40;;;1.30;;
8066;SDS011;4076;48.076;9.118;2024-02-23T05:37:35;2.60;;;1.00;;
8066;SDS011;4076;48.076;9.118;2024-02-23T05:40:01;1.80;;;1.53;;
8066;SDS011;4076;48.076;9.118;2024-02-23T05:42:31;1.70;;;1.60;;
8066;SDS011;4076;48.076;9.118;2024-02-23T05:44:57;1.37;;;1.27;;
8066;SDS011;4076;48.076;9.118;2024-02-23T05:47:23;2.10;;;1.60;;
8066;SDS011;4076;48.076;9.118;2024-02-23T05:49:49;2.27;;;2.07;;
8066;SDS011;4076;48.076;9.118;2024-02-23T05:52:15;2.50;;;2.10;;
8066;SDS011;4076;48.076;9.118;2024-02-23T05:54:40;7.67;;;5.73;;
8066;SDS011;4076;48.076;9.118;2024-02-23T05:57:06;3.07;;;2.77;;
8066;SDS011;4076;48.076;9.118;2024-02-23T05:59:31;2.53;;;2.33;;
8066;SDS011;4076;48.076;9.118;2024-02-23T06:01:57;2.60;;;2.50;;
8066;SDS011;4076;48.076;9.118;2024-02-23T06:04:23;1.90;;;1.80;;
8066;SDS011;4076;48.076;9.118;2024-02-23T06:06:49;2.07;;;1.83;;
8066;SDS011;4076;48.076;9.118;2024-02-23T06:09:14;2.60;;;2.10;;
8066;SDS011;4076;48.076;9.118;2024-02-23T06:11:40;2.73;;;2.53;;
8066;SDS011;4076;48.076;9.118;2024-02-23T06:14:07;2.80;;;2.57;;
8066;SDS011;4076;48.076;9.118;2024-02-23T06:16:32;4.50;;;1.87;;
8066;SDS011;4076;48.076;9.118;2024-02-23T06:18:58;2.57;;;2.10;;
8066;SDS011;4076;48.076;9.118;2024-02-23T06:21:24;1.97;;;1.80;;
8066;SDS011;4076;48.076;9.118;2024-02-23T06:23:49;5.90;;;3.70;;
8066;SDS011;4076;48.076;9.118;2024-02-23T06:26:15;4.53;;;2.90;;
8066;SDS011;4076;48.076;9.118;2024-02-23T06:28:40;2.47;;;2.27;;
8066;SDS011;4076;48.076;9.118;2024-02-23T06:31:07;2.80;;;2.10;;
8066;SDS011;4076;48.076;9.118;2024-02-23T06:33:33;3.63;;;2.57;;
8066;SDS011;4076;48.076;9.118;2024-02-23T06:35:59;5.93;;;2.87;;
8066;SDS011;4076;48.076;9.118;2024-02-23T06:38:24;2.13;;;1.80;;
8066;SDS011;4076;48.076;9.118;2024-02-23T06:40:50;3.73;;;1.63;;
8066;SDS011;4076;48.076;9.118;2024-02-23T06:43:16;1.80;;;1.70;;
8066;SDS011;4076;48.076;9.118;2024-02-23T06:45:42;2.03;;;1.93;;
8066;SDS011;4076;48.076;9.118;2024-02-23T06:48:07;2.40;;;2.20;;
8066;SDS011;4076;48.076;9.118;2024-02-23T06:50:33;1.27;;;1.17;;
8066;SDS011;4076;48.076;9.118;2024-02-23T06:52:59;1.77;;;1.67;;
8066;SDS011;4076;48.076;9.118;2024-02-23T06:55:25;2.43;;;1.40;;
8066;SDS011;4076;48.076;9.118;2024-02-23T06:57:51;1.93;;;1.10;;
8066;SDS011;4076;48.076;9.118;2024-02-23T07:00:16;2.50;;;1.43;;
8066;SDS011;4076;48.076;9.118;2024-02-23T07:02:42;2.47;;;1.80;;
8066;SDS011;4076;48.076;9.118;2024-02-23T07:05:08;2.20;;;1.20;;
8066;SDS011;4076;48.076;9.118;2024-02-23T07:07:34;1.40;;;1.30;;
8066;SDS011;4076;48.076;9.118;2024-02-23T07:10:00;1.83;;;1.73;;
8066;SDS011;4076;48.076;9.118;2024-02-23T07:12:26;1.80;;;1.17;;
8066;SDS011;4076;48.076;9.118;2024-02-23T07:14:53;1.37;;;0.93;;
8066;SDS011;4076;48.076;9.118;2024-02-23T07:17:20;1.90;;;0.90;;
8066;SDS011;4076;48.076;9.118;2024-02-23T07:19:45;1.10;;;1.00;;
8066;SDS011;4076;48.076;9.118;2024-02-23T07:22:11;1.07;;;1.00;;
8066;SDS011;4076;48.076;9.118;2024-02-23T07:24:40;1.50;;;1.40;;
8066;SDS011;4076;48.076;9.118;2024-02-23T07:27:06;1.53;;;0.80;;
8066;SDS011;4076;48.076;9.118;2024-02-23T07:29:32;1.10;;;1.00;;
8066;SDS011;4076;48.076;9.118;2024-02-23T07:31:57;1.33;;;1.23;;
8066;SDS011;4076;48.076;9.118;2024-02-23T07:34:23;1.27;;;1.17;;
8066;SDS011;4076;48.076;9.118;2024-02-23T07:36:51;1.03;;;0.93;;
8066;SDS011;4076;48.076;9.118;2024-02-23T07:39:17;1.20;;;1.10;;
8066;SDS011;4076;48.076;9.118;2024-02-23T07:41:42;1.97;;;1.10;;
8066;SDS011;4076;48.076;9.118;2024-02-23T07:44:08;3.33;;;0.90;;
8066;SDS011;4076;48.076;9.118;2024-02-23T07:46:34;0.80;;;0.80;;
8066;SDS011;4076;48.076;9.118;2024-02-23T07:48:59;1.10;;;1.00;;
8066;SDS011;4076;48.076;9.118;2024-02-23T07:51:25;2.83;;;1.03;;
8066;SDS011;4076;48.076;9.118;2024-02-23T07:53:51;1.47;;;0.90;;
8066;SDS011;4076;48.076;9.118;2024-02-23T07:56:16;2.30;;;0.87;;
8066;SDS011;4076;48.076;9.118;2024-02-23T07:58:42;2.83;;;0.90;;
8066;SDS011;4076;48.076;9.118;2024-02-23T08:01:08;1.17;;;1.07;;
8066;SDS011;4076;48.076;9.118;2024-02-23T08:03:33;1.17;;;1.03;;
8066;SDS011;4076;48.076;9.118;2024-02-23T08:05:59;1.00;;;0.90;;
8066;SDS011;4076;48.076;9.118;2024-02-23T08:08:25;1.50;;;1.10;;
8066;SDS011;4076;48.076;9.118;2024-02-23T08:10:52;1.20;;;1.10;;
8066;SDS011;4076;48.076;9.118;2024-02-23T08:13:18;1.20;;;1.10;;
8066;SDS011;4076;48.076;9.118;2024-02-23T08:15:44;1.37;;;1.07;;
8066;SDS011;4076;48.076;9.118;2024-02-23T08:18:09;1.37;;;1.27;;
8066;SDS011;4076;48.076;9.118;2024-02-23T08:20:35;1.00;;;0.90;;
8066;SDS011;4076;48.076;9.118;2024-02-23T08:23:01;1.47;;;1.00;;
8066;SDS011;4076;48.076;9.118;2024-02-23T08:25:27;2.40;;;1.30;;
8066;SDS011;4076;48.076;9.118;2024-02-23T08:27:55;4.77;;;2.00;;
8066;SDS011;4076;48.076;9.118;2024-02-23T08:30:22;3.70;;;3.33;;
8066;SDS011;4076;48.076;9.118;2024-02-23T08:32:48;1.30;;;1.13;;
8066;SDS011;4076;48.076;9.118;2024-02-23T08:35:13;1.20;;;1.10;;
8066;SDS011;4076;48.076;9.118;2024-02-23T08:37:40;1.83;;;1.73;;
8066;SDS011;4076;48.076;9.118;2024-02-23T08:40:08;2.50;;;1.20;;
8066;SDS011;4076;48.076;9.118;2024-02-23T08:42:34;1.70;;;1.20;;
8066;SDS011;4076;48.076;9.118;2024-02-23T08:45:00;2.60;;;1.10;;
8066;SDS011;4076;48.076;9.118;2024-02-23T08:47:25;2.80;;;1.23;;
8066;SDS011;4076;48.076;9.118;2024-02-23T08:49:57;1.53;;;1.07;;
8066;SDS011;4076;48.076;9.118;2024-02-23T08:52:23;1.43;;;1.10;;
8066;SDS011;4076;48.076;9.118;2024-02-23T08:54:48;2.00;;;1.30;;
8066;SDS011;4076;48.076;9.118;2024-02-23T08:57:14;2.97;;;1.23;;
8066;SDS011;4076;48.076;9.118;2024-02-23T08:59:44;1.57;;;1.10;;
8066;SDS011;4076;48.076;9.118;2024-02-23T09:02:12;1.83;;;1.17;;
8066;SDS011;4076;48.076;9.118;2024-02-23T09:04:38;2.47;;;1.00;;
8066;SDS011;4076;48.076;9.118;2024-02-23T09:07:03;2.10;;;1.00;;
8066;SDS011;4076;48.076;9.118;2024-02-23T09:09:29;1.67;;;1.37;;
8066;SDS011;4076;48.076;9.118;2024-02-23T09:11:55;1.90;;;1.30;;
8066;SDS011;4076;48.076;9.118;2024-02-23T09:14:21;2.90;;;1.90;;
8066;SDS011;4076;48.076;9.118;2024-02-23T09:16:46;1.20;;;1.10;;
8066;SDS011;4076;48.076;9.118;2024-02-23T09:19:15;1.63;;;1.20;;
8066;SDS011;4076;48.076;9.118;2024-02-23T09:21:41;1.43;;;1.10;;
8066;SDS011;4076;48.076;9.118;2024-02-23T09:24:07;1.57;;;1.47;;
8066;SDS011;4076;48.076;9.118;2024-02-23T09:26:33;3.20;;;1.30;;
8066;SDS011;4076;48.076;9.118;2024-02-23T09:28:58;1.37;;;1.20;;
8066;SDS011;4076;48.076;9.118;2024-02-23T09:31:24;1.47;;;1.30;;
8066;SDS011;4076;48.076;9.118;2024-02-23T09:33:51;1.20;;;1.10;;
8066;SDS011;4076;48.076;9.118;2024-02-23T09:36:17;2.30;;;1.23;;
8066;SDS011;4076;48.076;9.118;2024-02-23T09:38:42;1.47;;;1.10;;
8066;SDS011;4076;48.076;9.118;2024-02-23T09:41:11;2.50;;;1.67;;
8066;SDS011;4076;48.076;9.118;2024-02-23T09:43:44;1.10;;;0.87;;
8066;SDS011;4076;48.076;9.118;2024-02-23T09:46:11;1.53;;;1.30;;
8066;SDS011;4076;48.076;9.118;2024-02-23T09:48:37;4.03;;;1.40;;
8066;SDS011;4076;48.076;9.118;2024-02-23T09:51:03;1.30;;;1.00;;
8066;SDS011;4076;48.076;9.118;2024-02-23T09:53:31;2.20;;;1.20;;
8066;SDS011;4076;48.076;9.118;2024-02-23T09:55:59;1.20;;;1.10;;
8066;SDS011;4076;48.076;9.118;2024-02-23T09:58:25;3.27;;;2.30;;
8066;SDS011;4076;48.076;9.118;2024-02-23T10:00:51;1.30;;;0.90;;
8066;SDS011;4076;48.076;9.118;2024-02-23T10:03:18;0.87;;;0.87;;
8066;SDS011;4076;48.076;9.118;2024-02-23T10:05:44;1.10;;;0.97;;
8066;SDS011;4076;48.076;9.118;2024-02-23T10:08:10;1.90;;;1.27;;
8066;SDS011;4076;48.076;9.118;2024-02-23T10:10:37;2.97;;;1.40;;
8066;SDS011;4076;48.076;9.118;2024-02-23T10:13:03;1.40;;;1.30;;
8066;SDS011;4076;48.076;9.118;2024-02-23T10:15:31;5.80;;;2.70;;
8066;SDS011;4076;48.076;9.118;2024-02-23T10:17:57;2.97;;;2.20;;
8066;SDS011;4076;48.076;9.118;2024-02-23T10:20:22;3.53;;;1.40;;
8066;SDS011;4076;48.076;9.118;2024-02-23T10:22:48;1.70;;;1.10;;
8066;SDS011;4076;48.076;9.118;2024-02-23T10:25:14;3.20;;;1.03;;
8066;SDS011;4076;48.076;9.118;2024-02-23T10:27:43;1.43;;;1.30;;
8066;SDS011;4076;48.076;9.118;2024-02-23T10:30:08;2.30;;;1.30;;
8066;SDS011;4076;48.076;9.118;2024-02-23T10:32:38;8.13;;;1.70;;
8066;SDS011;4076;48.076;9.118;2024-02-23T10:35:05;6.20;;;1.30;;
8066;SDS011;4076;48.076;9.118;2024-02-23T10:37:44;1.20;;;1.10;;
8066;SDS011;4076;48.076;9.118;2024-02-23T10:40:15;2.60;;;1.07;;
8066;SDS011;4076;48.076;9.118;2024-02-23T10:42:43;2.53;;;1.20;;
8066;SDS011;4076;48.076;9.118;2024-02-23T10:45:14;2.37;;;1.30;;
8066;SDS011;4076;48.076;9.118;2024-02-23T10:47:40;2.60;;;1.30;;
8066;SDS011;4076;48.076;9.118;2024-02-23T10:50:07;1.93;;;1.10;;
8066;SDS011;4076;48.076;9.118;2024-02-23T10:52:33;2.43;;;1.10;;
8066;SDS011;4076;48.076;9.118;2024-02-23T10:55:01;2.27;;;1.20;;
8066;SDS011;4076;48.076;9.118;2024-02-23T10:57:30;2.17;;;1.40;;
8066;SDS011;4076;48.076;9.118;2024-02-23T10:59:57;4.80;;;1.87;;
8066;SDS011;4076;48.076;9.118;2024-02-23T11:02:23;1.80;;;1.07;;
8066;SDS011;4076;48.076;9.118;2024-02-23T11:04:51;2.70;;;1.40;;
8066;SDS011;4076;48.076;9.118;2024-02-23T11:07:20;1.07;;;0.97;;
8066;SDS011;4076;48.076;9.118;2024-02-23T11:09:53;3.53;;;1.23;;
8066;SDS011;4076;48.076;9.118;2024-02-23T11:12:25;2.87;;;1.13;;
8066;SDS011;4076;48.076;9.118;2024-02-23T11:14:57;1.50;;;1.20;;
8066;SDS011;4076;48.076;9.118;2024-02-23T11:17:25;1.20;;;1.10;;
8066;SDS011;4076;48.076;9.118;2024-02-23T11:19:55;1.20;;;1.10;;
8066;SDS011;4076;48.076;9.118;2024-02-23T11:22:30;1.47;;;1.37;;
8066;SDS011;4076;48.076;9.118;2024-02-23T11:25:02;1.90;;;1.60;;
8066;SDS011;4076;48.076;9.118;2024-02-23T11:27:32;6.00;;;3.67;;
8066;SDS011;4076;48.076;9.118;2024-02-23T11:29:59;8.50;;;1.87;;
8066;SDS011;4076;48.076;9.118;2024-02-23T11:32:39;5.10;;;1.60;;
8066;SDS011;4076;48.076;9.118;2024-02-23T11:35:07;3.10;;;1.47;;
8066;SDS011;4076;48.076;9.118;2024-02-23T11:37:52;5.57;;;1.70;;
8066;SDS011;4076;48.076;9.118;2024-02-23T11:40:29;2.13;;;1.57;;
8066;SDS011;4076;48.076;9.118;2024-02-23T11:42:56;1.50;;;1.20;;
8066;SDS011;4076;48.076;9.118;2024-02-23T11:45:22;3.20;;;2.00;;
8066;SDS011;4076;48.076;9.118;2024-02-23T11:47:48;3.10;;;1.67;;
8066;SDS011;4076;48.076;9.118;2024-02-23T11:50:14;3.17;;;1.50;;
8066;SDS011;4076;48.076;9.118;2024-02-23T11:52:41;2.10;;;1.20;;
8066;SDS011;4076;48.076;9.118;2024-02-23T11:55:07;2.53;;;1.37;;
8066;SDS011;4076;48.076;9.118;2024-02-23T11:57:36;1.00;;;0.90;;
8066;SDS011;4076;48.076;9.118;2024-02-23T12:00:02;1.43;;;1.20;;
8066;SDS011;4076;48.076;9.118;2024-02-23T12:02:28;1.40;;;1.27;;
8066;SDS011;4076;48.076;9.118;2024-02-23T12:04:54;3.93;;;1.47;;
8066;SDS011;4076;48.076;9.118;2024-02-23T12:07:19;2.00;;;1.20;;
8066;SDS011;4076;48.076;9.118;2024-02-23T12:09:46;1.57;;;1.47;;
8066;SDS011;4076;48.076;9.118;2024-02-23T12:12:12;5.23;;;2.70;;
8066;SDS011;4076;48.076;9.118;2024-02-23T12:14:39;5.63;;;2.43;;
8066;SDS011;4076;48.076;9.118;2024-02-23T12:17:05;1.47;;;1.23;;
8066;SDS011;4076;48.076;9.118;2024-02-23T12:19:37;2.00;;;1.50;;
8066;SDS011;4076;48.076;9.118;2024-02-23T12:22:05;2.07;;;1.77;;
8066;SDS011;4076;48.076;9.118;2024-02-23T12:24:31;1.97;;;1.77;;
8066;SDS011;4076;48.076;9.118;2024-02-23T12:26:56;1.47;;;1.37;;
8066;SDS011;4076;48.076;9.118;2024-02-23T12:29:22;2.77;;;1.20;;
8066;SDS011;4076;48.076;9.118;2024-02-23T12:31:48;1.30;;;1.20;;
8066;SDS011;4076;48.076;9.118;2024-02-23T12:34:14;1.33;;;1.23;;
8066;SDS011;4076;48.076;9.118;2024-02-23T12:36:40;1.60;;;1.50;;
8066;SDS011;4076;48.076;9.118;2024-02-23T12:39:05;2.27;;;1.10;;
8066;SDS011;4076;48.076;9.118;2024-02-23T12:41:31;1.67;;;1.00;;
8066;SDS011;4076;48.076;9.118;2024-02-23T12:43:57;2.70;;;1.30;;
8066;SDS011;4076;48.076;9.118;2024-02-23T12:46:23;2.37;;;1.20;;
8066;SDS011;4076;48.076;9.118;2024-02-23T12:48:49;1.50;;;1.40;;
8066;SDS011;4076;48.076;9.118;2024-02-23T12:51:15;1.40;;;1.30;;
8066;SDS011;4076;48.076;9.118;2024-02-23T12:53:41;1.67;;;1.20;;
8066;SDS011;4076;48.076;9.118;2024-02-23T12:56:11;2.20;;;1.23;;
8066;SDS011;4076;48.076;9.118;2024-02-23T12:58:41;3.13;;;1.30;;
8066;SDS011;4076;48.076;9.118;2024-02-23T13:01:07;2.77;;;1.73;;
8066;SDS011;4076;48.076;9.118;2024-02-23T13:03:34;1.30;;;1.20;;
8066;SDS011;4076;48.076;9.118;2024-02-23T13:06:00;1.10;;;1.00;;
8066;SDS011;4076;48.076;9.118;2024-02-23T13:08:26;2.60;;;1.50;;
8066;SDS011;4076;48.076;9.118;2024-02-23T13:10:52;2.23;;;1.17;;
8066;SDS011;4076;48.076;9.118;2024-02-23T13:13:21;2.20;;;1.87;;
8066;SDS011;4076;48.076;9.118;2024-02-23T13:15:48;1.50;;;1.30;;
8066;SDS011;4076;48.076;9.118;2024-02-23T13:18:15;2.07;;;1.43;;
8066;SDS011;4076;48.076;9.118;2024-02-23T13:20:41;1.67;;;1.13;;
8066;SDS011;4076;48.076;9.118;2024-02-23T13:23:06;1.77;;;1.67;;
8066;SDS011;4076;48.076;9.118;2024-02-23T13:25:34;1.53;;;1.00;;
8066;SDS011;4076;48.076;9.118;2024-02-23T13:28:00;1.40;;;1.07;;
8066;SDS011;4076;48.076;9.118;2024-02-23T13:30:26;1.60;;;1.50;;
8066;SDS011;4076;48.076;9.118;2024-02-23T13:32:52;3.53;;;1.10;;
8066;SDS011;4076;48.076;9.118;2024-02-23T13:35:18;1.47;;;1.20;;
8066;SDS011;4076;48.076;9.118;2024-02-23T13:37:43;3.33;;;1.40;;
8066;SDS011;4076;48.076;9.118;2024-02-23T13:40:09;2.80;;;1.33;;
8066;SDS011;4076;48.076;9.118;2024-02-23T13:42:35;3.50;;;1.10;;
8066;SDS011;4076;48.076;9.118;2024-02-23T13:45:03;2.27;;;2.07;;
8066;SDS011;4076;48.076;9.118;2024-02-23T13:47:30;2.63;;;2.13;;
8066;SDS011;4076;48.076;9.118;2024-02-23T13:49:55;2.40;;;1.10;;
8066;SDS011;4076;48.076;9.118;2024-02-23T13:52:21;2.30;;;1.30;;
8066;SDS011;4076;48.076;9.118;2024-02-23T13:54:47;1.50;;;1.40;;
8066;SDS011;4076;48.076;9.118;2024-02-23T13:57:12;1.30;;;1.13;;
8066;SDS011;4076;48.076;9.118;2024-02-23T13:59:38;1.20;;;1.10;;
8066;SDS011;4076;48.076;9.118;2024-02-23T14:02:03;0.97;;;0.87;;
8066;SDS011;4076;48.076;9.118;2024-02-23T14:04:29;3.30;;;1.80;;
8066;SDS011;4076;48.076;9.118;2024-02-23T14:06:55;1.80;;;1.10;;
8066;SDS011;4076;48.076;9.118;2024-02-23T14:09:21;13.00;;;1.63;;
8066;SDS011;4076;48.076;9.118;2024-02-23T14:11:46;1.67;;;1.27;;
8066;SDS011;4076;48.076;9.118;2024-02-23T14:14:12;2.50;;;0.93;;
8066;SDS011;4076;48.076;9.118;2024-02-23T14:16:38;6.27;;;1.23;;
8066;SDS011;4076;48.076;9.118;2024-02-23T14:19:04;2.23;;;1.63;;
8066;SDS011;4076;48.076;9.118;2024-02-23T14:21:30;2.03;;;1.10;;
8066;SDS011;4076;48.076;9.118;2024-02-23T14:23:55;2.37;;;1.10;;
8066;SDS011;4076;48.076;9.118;2024-02-23T14:26:21;1.33;;;1.20;;
8066;SDS011;4076;48.076;9.118;2024-02-23T14:28:47;5.10;;;3.60;;
8066;SDS011;4076;48.076;9.118;2024-02-23T14:31:14;3.00;;;1.70;;
8066;SDS011;4076;48.076;9.118;2024-02-23T14:33:39;3.33;;;1.77;;
8066;SDS011;4076;48.076;9.118;2024-02-23T14:36:05;3.27;;;1.10;;
8066;SDS011;4076;48.076;9.118;2024-02-23T14:38:31;4.13;;;1.10;;
8066;SDS011;4076;48.076;9.118;2024-02-23T14:40:56;2.80;;;1.20;;
8066;SDS011;4076;48.076;9.118;2024-02-23T14:43:23;1.13;;;0.97;;
8066;SDS011;4076;48.076;9.118;2024-02-23T14:45:48;1.20;;;1.10;;
8066;SDS011;4076;48.076;9.118;2024-02-23T14:48:16;0.90;;;0.90;;
8066;SDS011;4076;48.076;9.118;2024-02-23T14:50:42;2.60;;;1.07;;
8066;SDS011;4076;48.076;9.118;2024-02-23T14:53:07;2.50;;;1.10;;
8066;SDS011;4076;48.076;9.118;2024-02-23T14:55:33;2.30;;;1.10;;
8066;SDS011;4076;48.076;9.118;2024-02-23T14:57:59;2.07;;;1.97;;
8066;SDS011;4076;48.076;9.118;2024-02-23T15:00:25;1.40;;;1.07;;
8066;SDS011;4076;48.076;9.118;2024-02-23T15:02:51;1.30;;;1.20;;
8066;SDS011;4076;48.076;9.118;2024-02-23T15:05:17;1.30;;;1.20;;
8066;SDS011;4076;48.076;9.118;2024-02-23T15:07:42;4.60;;;1.97;;
8066;SDS011;4076;48.076;9.118;2024-02-23T15:10:08;2.20;;;2.10;;